sensor_id;sensor_type;location;lat;lon;timestamp;pressure;altitude;pressure_sealevel;temperature;humidity
24610;BME280;12758;47.890;11.694;2023-08-12T00:00:17;94337.53;;;22.65;100.00
24610;BME280;12758;47.890;11.694;2023-08-12T00:02:43;94338.34;;;22.65;100.00
24610;BME280;12758;47.890;11.694;2023-08-12T00:05:10;94335.56;;;22.65;100.00
24610;BME280;12758;47.890;11.694;2023-08-12T00:07:36;94338.34;;;22.62;100.00
24610;BME280;12758;47.890;11.694;2023-08-12T00:10:04;94329.63;;;22.56;100.00
24610;BME280;12758;47.890;11.694;2023-08-12T00:12:31;94330.41;;;22.49;100.00
24610;BME280;12758;47.890;11.694;2023-08-12T00:14:58;94334.75;;;22.47;100.00
24610;BME280;12758;47.890;11.694;2023-08-12T00:17:24;94336.34;;;22.48;100.00
24610;BME280;12758;47.890;11.694;2023-08-12T00:19:50;94323.28;;;22.45;100.00
24610;BME280;12758;47.890;11.694;2023-08-12T00:22:16;94331.97;;;22.43;100.00
24610;BME280;12758;47.890;11.694;2023-08-12T00:24:42;94325.28;;;22.41;100.00
24610;BME280;12758;47.890;11.694;2023-08-12T00:27:08;94326.06;;;22.38;100.00
24610;BME280;12758;47.890;11.694;2023-08-12T00:29:34;94333.56;;;22.41;100.00
24610;BME280;12758;47.890;11.694;2023-08-12T00:32:01;94325.66;;;22.39;100.00
24610;BME280;12758;47.890;11.694;2023-08-12T00:34:27;94322.88;;;22.43;100.00
24610;BME280;12758;47.890;11.694;2023-08-12T00:36:53;94318.91;;;22.37;100.00
24610;BME280;12758;47.890;11.694;2023-08-12T00:39:19;94321.66;;;22.22;100.00
24610;BME280;12758;47.890;11.694;2023-08-12T00:41:46;94321.69;;;22.37;100.00
24610;BME280;12758;47.890;11.694;2023-08-12T00:44:12;94313.78;;;22.31;100.00
24610;BME280;12758;47.890;11.694;2023-08-12T00:46:38;94308.94;;;22.07;100.00
24610;BME280;12758;47.890;11.694;2023-08-12T00:49:07;94308.94;;;22.07;100.00
24610;BME280;12758;47.890;11.694;2023-08-12T00:51:34;94293.94;;;22.08;100.00
24610;BME280;12758;47.890;11.694;2023-08-12T00:54:00;94297.91;;;22.14;100.00
24610;BME280;12758;47.890;11.694;2023-08-12T00:56:28;94301.06;;;22.09;100.00
24610;BME280;12758;47.890;11.694;2023-08-12T00:58:54;94295.53;;;22.09;100.00
24610;BME280;12758;47.890;11.694;2023-08-12T01:01:20;94299.88;;;22.10;100.00
24610;BME280;12758;47.890;11.694;2023-08-12T01:03:47;94292.38;;;22.14;100.00
24610;BME280;12758;47.890;11.694;2023-08-12T01:06:13;94288.44;;;22.15;100.00
24610;BME280;12758;47.890;11.694;2023-08-12T01:08:39;94300.66;;;22.14;100.00
24610;BME280;12758;47.890;11.694;2023-08-12T01:11:08;94294.72;;;22.08;100.00
24610;BME280;12758;47.890;11.694;2023-08-12T01:13:39;94291.56;;;22.03;100.00
24610;BME280;12758;47.890;11.694;2023-08-12T01:16:10;94288.38;;;22.01;100.00
24610;BME280;12758;47.890;11.694;2023-08-12T01:18:38;94275.75;;;22.07;100.00
24610;BME280;12758;47.890;11.694;2023-08-12T01:21:05;94278.53;;;22.10;100.00
24610;BME280;12758;47.890;11.694;2023-08-12T01:23:34;94274.97;;;22.10;100.00
24610;BME280;12758;47.890;11.694;2023-08-12T01:26:00;94276.56;;;22.15;100.00
24610;BME280;12758;47.890;11.694;2023-08-12T01:28:26;94277.38;;;22.15;100.00
24610;BME280;12758;47.890;11.694;2023-08-12T01:30:55;94282.06;;;22.04;100.00
24610;BME280;12758;47.890;11.694;2023-08-12T01:33:33;94280.50;;;22.03;100.00
24610;BME280;12758;47.890;11.694;2023-08-12T01:36:07;94280.88;;;22.05;100.00
24610;BME280;12758;47.890;11.694;2023-08-12T01:38:35;94271.78;;;21.97;100.00
24610;BME280;12758;47.890;11.694;2023-08-12T01:41:04;94279.66;;;21.92;100.00
24610;BME280;12758;47.890;11.694;2023-08-12T01:43:30;94274.91;;;21.89;100.00
24610;BME280;12758;47.890;11.694;2023-08-12T01:45:56;94281.63;;;21.88;100.00
24610;BME280;12758;47.890;11.694;2023-08-12T01:48:22;94280.44;;;21.89;100.00
24610;BME280;12758;47.890;11.694;2023-08-12T01:50:48;94271.38;;;21.92;100.00
24610;BME280;12758;47.890;11.694;2023-08-12T01:53:14;94270.16;;;21.78;100.00
24610;BME280;12758;47.890;11.694;2023-08-12T01:55:42;94268.59;;;21.84;100.00
24610;BME280;12758;47.890;11.694;2023-08-12T01:58:09;94269.78;;;21.83;100.00
24610;BME280;12758;47.890;11.694;2023-08-12T02:00:35;94272.94;;;21.85;100.00
24610;BME280;12758;47.890;11.694;2023-08-12T02:03:01;94264.63;;;21.78;100.00
24610;BME280;12758;47.890;11.694;2023-08-12T02:05:27;94273.28;;;21.73;100.00
24610;BME280;12758;47.890;11.694;2023-08-12T02:07:53;94262.22;;;21.73;100.00
24610;BME280;12758;47.890;11.694;2023-08-12T02:10:19;94256.66;;;21.66;100.00
24610;BME280;12758;47.890;11.694;2023-08-12T02:12:46;94253.53;;;21.64;100.00
24610;BME280;12758;47.890;11.694;2023-08-12T02:15:11;94255.09;;;21.65;100.00
24610;BME280;12758;47.890;11.694;2023-08-12T02:17:38;94252.34;;;21.65;100.00
24610;BME280;12758;47.890;11.694;2023-08-12T02:20:05;94247.22;;;21.67;100.00
24610;BME280;12758;47.890;11.694;2023-08-12T02:22:31;94248.78;;;21.61;100.00
24610;BME280;12758;47.890;11.694;2023-08-12T02:24:57;94251.91;;;21.56;100.00
24610;BME280;12758;47.890;11.694;2023-08-12T02:27:24;94251.13;;;21.55;100.00
24610;BME280;12758;47.890;11.694;2023-08-12T02:29:51;94251.88;;;21.52;100.00
24610;BME280;12758;47.890;11.694;2023-08-12T02:32:17;94242.03;;;21.51;100.00
24610;BME280;12758;47.890;11.694;2023-08-12T02:34:43;94241.59;;;21.46;100.00
24610;BME280;12758;47.890;11.694;2023-08-12T02:37:09;94242.38;;;21.43;100.00
24610;BME280;12758;47.890;11.694;2023-08-12T02:39:35;94236.84;;;21.43;100.00
24610;BME280;12758;47.890;11.694;2023-08-12T02:42:01;94233.69;;;21.44;100.00
24610;BME280;12758;47.890;11.694;2023-08-12T02:44:28;94237.63;;;21.43;100.00
24610;BME280;12758;47.890;11.694;2023-08-12T02:46:54;94228.16;;;21.40;100.00
24610;BME280;12758;47.890;11.694;2023-08-12T02:49:20;94235.28;;;21.42;100.00
24610;BME280;12758;47.890;11.694;2023-08-12T02:51:46;94228.16;;;21.40;100.00
24610;BME280;12758;47.890;11.694;2023-08-12T02:54:12;94225.03;;;21.42;100.00
24610;BME280;12758;47.890;11.694;2023-08-12T02:56:38;94222.25;;;21.42;100.00
24610;BME280;12758;47.890;11.694;2023-08-12T02:59:05;94217.88;;;21.37;100.00
24610;BME280;12758;47.890;11.694;2023-08-12T03:01:31;94211.19;;;21.35;100.00
24610;BME280;12758;47.890;11.694;2023-08-12T03:03:58;94207.97;;;21.29;100.00
24610;BME280;12758;47.890;11.694;2023-08-12T03:06:24;94213.06;;;21.27;100.00
24610;BME280;12758;47.890;11.694;2023-08-12T03:08:50;94215.44;;;21.25;100.00
24610;BME280;12758;47.890;11.694;2023-08-12T03:11:16;94203.56;;;21.21;100.00
24610;BME280;12758;47.890;11.694;2023-08-12T03:13:43;94204.38;;;21.22;100.00
24610;BME280;12758;47.890;11.694;2023-08-12T03:16:11;94215.81;;;21.20;100.00
24610;BME280;12758;47.890;11.694;2023-08-12T03:18:38;94207.53;;;21.20;100.00
24610;BME280;12758;47.890;11.694;2023-08-12T03:21:06;94206.75;;;21.20;100.00
24610;BME280;12758;47.890;11.694;2023-08-12T03:23:32;94215.41;;;21.22;100.00
24610;BME280;12758;47.890;11.694;2023-08-12T03:25:58;94209.94;;;21.25;100.00
24610;BME280;12758;47.890;11.694;2023-08-12T03:28:24;94213.84;;;21.24;100.00
24610;BME280;12758;47.890;11.694;2023-08-12T03:30:50;94202.03;;;21.27;100.00
24610;BME280;12758;47.890;11.694;2023-08-12T03:33:17;94212.28;;;21.27;100.00
24610;BME280;12758;47.890;11.694;2023-08-12T03:35:44;94209.09;;;21.21;100.00
24610;BME280;12758;47.890;11.694;2023-08-12T03:38:11;94209.47;;;21.16;100.00
24610;BME280;12758;47.890;11.694;2023-08-12T03:40:37;94206.66;;;21.09;100.00
24610;BME280;12758;47.890;11.694;2023-08-12T03:43:03;94204.69;;;21.06;100.00
24610;BME280;12758;47.890;11.694;2023-08-12T03:45:29;94207.47;;;21.09;100.00
24610;BME280;12758;47.890;11.694;2023-08-12T03:47:55;94211.81;;;21.07;100.00
24610;BME280;12758;47.890;11.694;2023-08-12T03:50:21;94212.56;;;21.04;100.00
24610;BME280;12758;47.890;11.694;2023-08-12T03:52:47;94201.88;;;20.99;100.00
24610;BME280;12758;47.890;11.694;2023-08-12T03:55:14;94204.25;;;20.97;100.00
24610;BME280;12758;47.890;11.694;2023-08-12T03:57:40;94202.66;;;20.96;100.00
24610;BME280;12758;47.890;11.694;2023-08-12T04:00:07;94193.22;;;20.97;100.00
24610;BME280;12758;47.890;11.694;2023-08-12T04:02:34;94196.34;;;20.91;100.00
24610;BME280;12758;47.890;11.694;2023-08-12T04:05:00;94201.44;;;20.89;100.00
24610;BME280;12758;47.890;11.694;2023-08-12T04:07:26;94202.63;;;20.88;100.00
24610;BME280;12758;47.890;11.694;2023-08-12T04:09:52;94208.94;;;20.92;100.00
24610;BME280;12758;47.890;11.694;2023-08-12T04:12:19;94203.44;;;20.92;100.00
24610;BME280;12758;47.890;11.694;2023-08-12T04:14:45;94207.38;;;20.91;100.00
24610;BME280;12758;47.890;11.694;2023-08-12T04:17:11;94209.69;;;20.86;100.00
24610;BME280;12758;47.890;11.694;2023-08-12T04:19:37;94204.97;;;20.86;100.00
24610;BME280;12758;47.890;11.694;2023-08-12T04:22:03;94199.44;;;20.86;100.00
24610;BME280;12758;47.890;11.694;2023-08-12T04:24:29;94198.66;;;20.86;100.00
24610;BME280;12758;47.890;11.694;2023-08-12T04:26:55;94201.41;;;20.86;100.00
24610;BME280;12758;47.890;11.694;2023-08-12T04:29:21;94201.84;;;20.88;100.00
24610;BME280;12758;47.890;11.694;2023-08-12T04:31:47;94201.81;;;20.84;100.00
24610;BME280;12758;47.890;11.694;2023-08-12T04:34:13;94203.38;;;20.85;100.00
24610;BME280;12758;47.890;11.694;2023-08-12T04:36:39;94206.53;;;20.84;100.00
24610;BME280;12758;47.890;11.694;2023-08-12T04:39:05;94209.66;;;20.79;100.00
24610;BME280;12758;47.890;11.694;2023-08-12T04:41:31;94203.31;;;20.71;100.00
24610;BME280;12758;47.890;11.694;2023-08-12T04:43:58;94204.09;;;20.72;100.00
24610;BME280;12758;47.890;11.694;2023-08-12T04:46:25;94202.56;;;20.78;100.00
24610;BME280;12758;47.890;11.694;2023-08-12T04:48:51;94204.94;;;20.79;100.00
24610;BME280;12758;47.890;11.694;2023-08-12T04:51:17;94202.94;;;20.76;100.00
24610;BME280;12758;47.890;11.694;2023-08-12T04:53:43;94200.56;;;20.71;100.00
24610;BME280;12758;47.890;11.694;2023-08-12T04:56:09;94196.59;;;20.72;100.00
24610;BME280;12758;47.890;11.694;2023-08-12T04:58:35;94194.66;;;20.76;100.00
24610;BME280;12758;47.890;11.694;2023-08-12T05:01:01;94193.09;;;20.75;100.00
24610;BME280;12758;47.890;11.694;2023-08-12T05:03:28;94203.69;;;20.73;100.00
24610;BME280;12758;47.890;11.694;2023-08-12T05:05:55;94200.94;;;20.73;100.00
24610;BME280;12758;47.890;11.694;2023-08-12T05:08:21;94196.59;;;20.72;100.00
24610;BME280;12758;47.890;11.694;2023-08-12T05:10:47;94198.59;;;20.75;100.00
24610;BME280;12758;47.890;11.694;2023-08-12T05:13:13;94198.59;;;20.75;100.00
24610;BME280;12758;47.890;11.694;2023-08-12T05:15:39;94208.44;;;20.76;100.00
24610;BME280;12758;47.890;11.694;2023-08-12T05:18:06;94210.44;;;20.79;100.00
24610;BME280;12758;47.890;11.694;2023-08-12T05:20:32;94208.41;;;20.69;100.00
24610;BME280;12758;47.890;11.694;2023-08-12T05:22:58;94204.31;;;20.48;100.00
24610;BME280;12758;47.890;11.694;2023-08-12T05:25:24;94203.78;;;20.32;100.00
24610;BME280;12758;47.890;11.694;2023-08-12T05:27:50;94205.97;;;20.12;100.00
24610;BME280;12758;47.890;11.694;2023-08-12T05:30:16;94206.81;;;20.20;100.00
24610;BME280;12758;47.890;11.694;2023-08-12T05:32:42;94208.47;;;20.32;100.00
24610;BME280;12758;47.890;11.694;2023-08-12T05:35:08;94200.38;;;20.50;100.00
24610;BME280;12758;47.890;11.694;2023-08-12T05:37:35;94199.13;;;20.43;100.00
24610;BME280;12758;47.890;11.694;2023-08-12T05:40:01;94204.56;;;20.29;100.00
24610;BME280;12758;47.890;11.694;2023-08-12T05:42:29;94199.09;;;20.36;100.00
24610;BME280;12758;47.890;11.694;2023-08-12T05:44:55;94201.38;;;20.27;100.00
24610;BME280;12758;47.890;11.694;2023-08-12T05:47:21;94205.94;;;20.09;100.00
24610;BME280;12758;47.890;11.694;2023-08-12T05:49:47;94207.44;;;20.02;100.00
24610;BME280;12758;47.890;11.694;2023-08-12T05:52:13;94204.28;;;20.00;100.00
24610;BME280;12758;47.890;11.694;2023-08-12T05:54:40;94202.78;;;20.07;100.00
24610;BME280;12758;47.890;11.694;2023-08-12T05:57:06;94198.06;;;20.07;100.00
24610;BME280;12758;47.890;11.694;2023-08-12T05:59:32;94207.44;;;20.02;100.00
24610;BME280;12758;47.890;11.694;2023-08-12T06:01:58;94206.81;;;20.20;100.00
24610;BME280;12758;47.890;11.694;2023-08-12T06:04:24;94204.56;;;20.29;100.00
24610;BME280;12758;47.890;11.694;2023-08-12T06:06:50;94205.69;;;20.28;100.00
24610;BME280;12758;47.890;11.694;2023-08-12T06:09:16;94210.06;;;20.29;100.00
24610;BME280;12758;47.890;11.694;2023-08-12T06:11:42;94212.44;;;20.34;100.00
24610;BME280;12758;47.890;11.694;2023-08-12T06:14:08;94215.22;;;20.34;100.00
24610;BME280;12758;47.890;11.694;2023-08-12T06:16:35;94212.56;;;20.48;100.00
24610;BME280;12758;47.890;11.694;2023-08-12T06:19:01;94211.41;;;20.50;100.00
24610;BME280;12758;47.890;11.694;2023-08-12T06:21:27;94213.59;;;20.30;100.00
24610;BME280;12758;47.890;11.694;2023-08-12T06:23:55;94199.78;;;20.22;100.00
24610;BME280;12758;47.890;11.694;2023-08-12T06:26:21;94205.66;;;20.21;100.00
24610;BME280;12758;47.890;11.694;2023-08-12T06:28:47;94205.53;;;20.07;100.00
24610;BME280;12758;47.890;11.694;2023-08-12T06:31:13;94199.56;;;20.01;100.00
24610;BME280;12758;47.890;11.694;2023-08-12T06:33:39;94205.88;;;20.01;100.00
24610;BME280;12758;47.890;11.694;2023-08-12T06:36:06;94204.66;;;19.99;100.00
24610;BME280;12758;47.890;11.694;2023-08-12T06:38:32;94208.19;;;19.99;100.00
24610;BME280;12758;47.890;11.694;2023-08-12T06:40:58;94208.19;;;19.99;100.00
24610;BME280;12758;47.890;11.694;2023-08-12T06:43:24;94199.53;;;19.97;100.00
24610;BME280;12758;47.890;11.694;2023-08-12T06:45:50;94196.41;;;20.02;100.00
24610;BME280;12758;47.890;11.694;2023-08-12T06:48:16;94195.69;;;20.09;100.00
24610;BME280;12758;47.890;11.694;2023-08-12T06:50:42;94200.13;;;20.21;100.00
24610;BME280;12758;47.890;11.694;2023-08-12T06:53:09;94195.88;;;20.31;100.00
24610;BME280;12758;47.890;11.694;2023-08-12T06:55:35;94186.47;;;20.35;100.00
24610;BME280;12758;47.890;11.694;2023-08-12T06:58:03;94195.19;;;20.44;100.00
24610;BME280;12758;47.890;11.694;2023-08-12T07:00:29;94190.59;;;20.56;100.00
24610;BME280;12758;47.890;11.694;2023-08-12T07:02:55;94193.78;;;20.58;100.00
24610;BME280;12758;47.890;11.694;2023-08-12T07:05:21;94190.38;;;20.86;100.00
24610;BME280;12758;47.890;11.694;2023-08-12T07:07:47;94203.03;;;20.90;100.00
24610;BME280;12758;47.890;11.694;2023-08-12T07:10:13;94190.84;;;20.99;100.00
24610;BME280;12758;47.890;11.694;2023-08-12T07:12:39;94188.56;;;21.18;100.00
24610;BME280;12758;47.890;11.694;2023-08-12T07:15:06;94189.41;;;21.30;100.00
24610;BME280;12758;47.890;11.694;2023-08-12T07:17:32;94182.38;;;21.39;100.00
24610;BME280;12758;47.890;11.694;2023-08-12T07:19:59;94183.97;;;21.40;100.00
24610;BME280;12758;47.890;11.694;2023-08-12T07:22:25;94181.63;;;21.43;100.00
24610;BME280;12758;47.890;11.694;2023-08-12T07:24:51;94177.59;;;21.33;100.00
24610;BME280;12758;47.890;11.694;2023-08-12T07:27:18;94192.69;;;21.50;100.00
24610;BME280;12758;47.890;11.694;2023-08-12T07:29:43;94183.25;;;21.58;100.00
24610;BME280;12758;47.890;11.694;2023-08-12T07:32:09;94183.28;;;21.72;100.00
24610;BME280;12758;47.890;11.694;2023-08-12T07:34:35;94180.88;;;21.60;100.00
24610;BME280;12758;47.890;11.694;2023-08-12T07:37:02;94185.22;;;21.61;100.00
24610;BME280;12758;47.890;11.694;2023-08-12T07:39:28;94180.91;;;21.67;100.00
24610;BME280;12758;47.890;11.694;2023-08-12T07:41:54;94186.44;;;21.71;100.00
24610;BME280;12758;47.890;11.694;2023-08-12T07:44:20;94177.75;;;21.69;100.00
24610;BME280;12758;47.890;11.694;2023-08-12T07:46:46;94176.19;;;21.78;100.00
24610;BME280;12758;47.890;11.694;2023-08-12T07:49:12;94181.75;;;22.07;100.00
24610;BME280;12758;47.890;11.694;2023-08-12T07:51:38;94184.97;;;22.23;100.00
24610;BME280;12758;47.890;11.694;2023-08-12T07:54:05;94196.44;;;22.32;100.00
24610;BME280;12758;47.890;11.694;2023-08-12T07:56:31;94189.69;;;22.55;100.00
24610;BME280;12758;47.890;11.694;2023-08-12T07:58:57;94182.56;;;22.47;100.00
24610;BME280;12758;47.890;11.694;2023-08-12T08:01:23;94195.63;;;22.61;100.00
24610;BME280;12758;47.890;11.694;2023-08-12T08:03:49;94192.00;;;22.89;100.00
24610;BME280;12758;47.890;11.694;2023-08-12T08:06:15;94185.66;;;23.13;100.00
24610;BME280;12758;47.890;11.694;2023-08-12T08:08:41;94184.84;;;23.23;100.00
24610;BME280;12758;47.890;11.694;2023-08-12T08:11:08;94189.06;;;23.60;100.00
24610;BME280;12758;47.890;11.694;2023-08-12T08:13:34;94190.97;;;23.78;100.00
24610;BME280;12758;47.890;11.694;2023-08-12T08:16:00;94189.41;;;23.77;100.00
24610;BME280;12758;47.890;11.694;2023-08-12T08:18:26;94195.78;;;23.70;100.00
24610;BME280;12758;47.890;11.694;2023-08-12T08:20:52;94192.22;;;23.55;100.00
24610;BME280;12758;47.890;11.694;2023-08-12T08:23:18;94195.34;;;23.71;100.00
24610;BME280;12758;47.890;11.694;2023-08-12T08:25:44;94190.22;;;23.66;100.00
24610;BME280;12758;47.890;11.694;2023-08-12T08:28:11;94196.94;;;23.73;100.00
24610;BME280;12758;47.890;11.694;2023-08-12T08:30:37;94195.75;;;23.74;100.00
24610;BME280;12758;47.890;11.694;2023-08-12T08:33:03;94206.84;;;23.70;100.00
24610;BME280;12758;47.890;11.694;2023-08-12T08:35:29;94209.22;;;23.71;100.00
24610;BME280;12758;47.890;11.694;2023-08-12T08:37:55;94195.34;;;23.71;100.00
24610;BME280;12758;47.890;11.694;2023-08-12T08:40:21;94199.75;;;23.58;100.00
24610;BME280;12758;47.890;11.694;2023-08-12T08:42:47;94204.28;;;24.04;100.00
24610;BME280;12758;47.890;11.694;2023-08-12T08:45:17;94201.84;;;24.13;100.00
24610;BME280;12758;47.890;11.694;2023-08-12T08:47:43;94211.47;;;23.91;100.00
24610;BME280;12758;47.890;11.694;2023-08-12T08:50:10;94208.72;;;23.87;100.00
24610;BME280;12758;47.890;11.694;2023-08-12T08:52:36;94204.78;;;23.85;100.00
24610;BME280;12758;47.890;11.694;2023-08-12T08:55:04;94192.47;;;23.93;100.00
24610;BME280;12758;47.890;11.694;2023-08-12T08:57:31;94206.06;;;23.62;100.00
24610;BME280;12758;47.890;11.694;2023-08-12T08:59:57;94203.69;;;23.64;100.00
24610;BME280;12758;47.890;11.694;2023-08-12T09:02:24;94204.63;;;24.10;100.00
24610;BME280;12758;47.890;11.694;2023-08-12T09:04:50;94210.59;;;24.08;100.00
24610;BME280;12758;47.890;11.694;2023-08-12T09:07:16;94202.91;;;23.60;100.00
24610;BME280;12758;47.890;11.694;2023-08-12T09:09:45;94211.41;;;24.05;100.00
24610;BME280;12758;47.890;11.694;2023-08-12T09:12:11;94211.47;;;23.98;100.00
24610;BME280;12758;47.890;11.694;2023-08-12T09:14:39;94211.00;;;24.07;100.00
24610;BME280;12758;47.890;11.694;2023-08-12T09:17:05;94215.28;;;24.18;100.00
24610;BME280;12758;47.890;11.694;2023-08-12T09:19:32;94212.84;;;24.28;100.00
24610;BME280;12758;47.890;11.694;2023-08-12T09:21:58;94211.84;;;24.59;100.00
24610;BME280;12758;47.890;11.694;2023-08-12T09:24:24;94218.78;;;24.33;100.00
24610;BME280;12758;47.890;11.694;2023-08-12T09:26:51;94214.66;;;24.52;100.00
24610;BME280;12758;47.890;11.694;2023-08-12T09:29:17;94214.47;;;24.22;100.00
24610;BME280;12758;47.890;11.694;2023-08-12T09:31:43;94228.53;;;24.52;100.00
24610;BME280;12758;47.890;11.694;2023-08-12T09:34:09;94228.38;;;24.74;100.00
24610;BME280;12758;47.890;11.694;2023-08-12T09:36:35;94224.69;;;24.87;100.00
24610;BME280;12758;47.890;11.694;2023-08-12T09:39:06;94220.38;;;24.83;100.00
24610;BME280;12758;47.890;11.694;2023-08-12T09:41:32;94223.00;;;24.97;100.00
24610;BME280;12758;47.890;11.694;2023-08-12T09:43:58;94225.94;;;24.83;100.00
24610;BME280;12758;47.890;11.694;2023-08-12T09:46:24;94227.06;;;24.89;100.00
24610;BME280;12758;47.890;11.694;2023-08-12T09:48:51;94231.03;;;24.88;100.00
24610;BME280;12758;47.890;11.694;2023-08-12T09:51:17;94224.91;;;25.04;100.00
24610;BME280;12758;47.890;11.694;2023-08-12T09:53:44;94224.53;;;25.05;100.00
24610;BME280;12758;47.890;11.694;2023-08-12T09:56:11;94232.03;;;25.08;100.00
24610;BME280;12758;47.890;11.694;2023-08-12T09:58:38;94235.94;;;25.18;100.00
24610;BME280;12758;47.890;11.694;2023-08-12T10:01:05;94226.34;;;25.23;100.00
24610;BME280;12758;47.890;11.694;2023-08-12T10:03:33;94224.63;;;24.95;100.00
24610;BME280;12758;47.890;11.694;2023-08-12T10:06:00;94229.19;;;24.71;100.00
24610;BME280;12758;47.890;11.694;2023-08-12T10:08:26;94227.44;;;24.91;100.00
24610;BME280;12758;47.890;11.694;2023-08-12T10:10:53;94222.25;;;24.93;100.00
24610;BME280;12758;47.890;11.694;2023-08-12T10:13:19;94223.03;;;24.94;100.00
24610;BME280;12758;47.890;11.694;2023-08-12T10:15:46;94225.28;;;25.09;100.00
24610;BME280;12758;47.890;11.694;2023-08-12T10:18:12;94217.75;;;25.14;100.00
24610;BME280;12758;47.890;11.694;2023-08-12T10:20:39;94224.84;;;25.15;100.00
24610;BME280;12758;47.890;11.694;2023-08-12T10:23:05;94220.13;;;25.08;100.00
24610;BME280;12758;47.890;11.694;2023-08-12T10:25:33;94218.56;;;25.03;100.00
24610;BME280;12758;47.890;11.694;2023-08-12T10:28:00;94224.03;;;25.18;100.00
24610;BME280;12758;47.890;11.694;2023-08-12T10:30:28;94227.25;;;25.13;100.00
24610;BME280;12758;47.890;11.694;2023-08-12T10:32:54;94233.53;;;25.20;100.00
24610;BME280;12758;47.890;11.694;2023-08-12T10:35:20;94218.91;;;25.13;100.00
24610;BME280;12758;47.890;11.694;2023-08-12T10:37:49;94223.97;;;25.25;100.00
24610;BME280;12758;47.890;11.694;2023-08-12T10:40:20;94216.50;;;25.52;100.00
24610;BME280;12758;47.890;11.694;2023-08-12T10:42:47;94220.06;;;25.53;100.00
24610;BME280;12758;47.890;11.694;2023-08-12T10:45:15;94217.34;;;25.49;100.00
24610;BME280;12758;47.890;11.694;2023-08-12T10:47:42;94217.41;;;25.42;100.00
24610;BME280;12758;47.890;11.694;2023-08-12T10:50:18;94213.94;;;25.69;100.00
24610;BME280;12758;47.890;11.694;2023-08-12T10:52:45;94226.28;;;25.98;100.00
24610;BME280;12758;47.890;11.694;2023-08-12T10:55:18;94208.94;;;25.87;100.00
24610;BME280;12758;47.890;11.694;2023-08-12T10:57:44;94210.03;;;26.24;100.00
24610;BME280;12758;47.890;11.694;2023-08-12T11:00:12;94205.31;;;26.21;100.00
24610;BME280;12758;47.890;11.694;2023-08-12T11:02:40;94199.56;;;26.32;100.00
24610;BME280;12758;47.890;11.694;2023-08-12T11:05:10;94200.13;;;26.46;100.00
24610;BME280;12758;47.890;11.694;2023-08-12T11:07:38;94193.00;;;26.45;100.00
24610;BME280;12758;47.890;11.694;2023-08-12T11:10:09;94191.06;;;25.88;100.00
24610;BME280;12758;47.890;11.694;2023-08-12T11:12:35;94188.97;;;26.50;100.00
24610;BME280;12758;47.890;11.694;2023-08-12T11:15:03;94195.81;;;26.69;100.00
24610;BME280;12758;47.890;11.694;2023-08-12T11:17:33;94195.03;;;26.41;100.00
24610;BME280;12758;47.890;11.694;2023-08-12T11:20:01;94187.53;;;26.38;100.00
24610;BME280;12758;47.890;11.694;2023-08-12T11:22:29;94187.09;;;26.67;100.00
24610;BME280;12758;47.890;11.694;2023-08-12T11:24:55;94186.69;;;26.41;100.00
24610;BME280;12758;47.890;11.694;2023-08-12T11:27:22;94179.50;;;26.71;100.00
24610;BME280;12758;47.890;11.694;2023-08-12T11:29:49;94183.34;;;27.01;100.00
24610;BME280;12758;47.890;11.694;2023-08-12T11:32:15;94180.56;;;26.77;99.20
24610;BME280;12758;47.890;11.694;2023-08-12T11:34:41;94184.53;;;27.00;100.00
24610;BME280;12758;47.890;11.694;2023-08-12T11:37:08;94179.47;;;26.94;94.92
24610;BME280;12758;47.890;11.694;2023-08-12T11:39:34;94177.38;;;27.22;100.00
24610;BME280;12758;47.890;11.694;2023-08-12T11:42:00;94182.09;;;27.25;88.83
24610;BME280;12758;47.890;11.694;2023-08-12T11:44:26;94182.25;;;26.94;95.50
24610;BME280;12758;47.890;11.694;2023-08-12T11:46:52;94179.78;;;26.53;93.11
24610;BME280;12758;47.890;11.694;2023-08-12T11:49:18;94179.72;;;26.80;95.50
24610;BME280;12758;47.890;11.694;2023-08-12T11:51:44;94182.47;;;26.84;94.81
24610;BME280;12758;47.890;11.694;2023-08-12T11:54:12;94172.75;;;26.68;96.53
24610;BME280;12758;47.890;11.694;2023-08-12T11:56:38;94184.03;;;26.34;100.00
24610;BME280;12758;47.890;11.694;2023-08-12T11:59:05;94169.34;;;25.76;100.00
24610;BME280;12758;47.890;11.694;2023-08-12T12:01:31;94167.06;;;26.25;100.00
24610;BME280;12758;47.890;11.694;2023-08-12T12:03:59;94173.25;;;26.36;100.00
24610;BME280;12758;47.890;11.694;2023-08-12T12:06:30;94170.66;;;26.96;100.00
24610;BME280;12758;47.890;11.694;2023-08-12T12:08:59;94168.69;;;27.20;100.00
24610;BME280;12758;47.890;11.694;2023-08-12T12:11:26;94166.94;;;27.06;100.00
24610;BME280;12758;47.890;11.694;2023-08-12T12:13:52;94173.81;;;27.41;96.09
24610;BME280;12758;47.890;11.694;2023-08-12T12:16:18;94167.31;;;27.28;92.75
24610;BME280;12758;47.890;11.694;2023-08-12T12:18:44;94168.19;;;27.02;92.88
24610;BME280;12758;47.890;11.694;2023-08-12T12:21:10;94160.81;;;27.15;97.25
24610;BME280;12758;47.890;11.694;2023-08-12T12:23:37;94158.94;;;27.28;87.57
24610;BME280;12758;47.890;11.694;2023-08-12T12:26:03;94156.09;;;27.52;90.96
24610;BME280;12758;47.890;11.694;2023-08-12T12:28:30;94161.44;;;26.79;99.05
24610;BME280;12758;47.890;11.694;2023-08-12T12:30:56;94148.94;;;27.51;93.43
24610;BME280;12758;47.890;11.694;2023-08-12T12:33:22;94158.44;;;27.53;87.26
24610;BME280;12758;47.890;11.694;2023-08-12T12:35:48;94156.69;;;27.23;88.62